sensor_id;sensor_type;location;lat;lon;timestamp;temperature;humidity
33149;DHT22;19506;51.040;3.856;2022-09-09T14:16:50;21.60;99.90
33149;DHT22;19506;51.040;3.856;2022-09-09T14:19:16;21.60;99.90
33149;DHT22;19506;51.040;3.856;2022-09-09T14:21:41;21.60;99.90
33149;DHT22;19506;51.040;3.856;2022-09-09T14:24:08;21.80;99.90
33149;DHT22;19506;51.040;3.856;2022-09-09T14:26:33;21.80;99.90
33149;DHT22;19506;51.040;3.856;2022-09-09T14:28:59;21.90;99.90
33149;DHT22;19506;51.040;3.856;2022-09-09T14:31:26;22.00;99.90
33149;DHT22;19506;51.040;3.856;2022-09-09T14:33:52;22.10;99.90
33149;DHT22;19506;51.040;3.856;2022-09-09T14:36:18;22.30;99.90
33149;DHT22;19506;51.040;3.856;2022-09-09T14:38:44;22.40;99.90
33149;DHT22;19506;51.040;3.856;2022-09-09T14:41:14;22.60;99.90
33149;DHT22;19506;51.040;3.856;2022-09-09T14:43:44;23.00;99.90
33149;DHT22;19506;51.040;3.856;2022-09-09T14:46:12;23.30;99.90
33149;DHT22;19506;51.040;3.856;2022-09-09T14:48:38;23.30;99.90
33149;DHT22;19506;51.040;3.856;2022-09-09T14:51:11;23.20;99.90
33149;DHT22;19506;51.040;3.856;2022-09-09T14:53:38;23.20;99.90
33149;DHT22;19506;51.040;3.856;2022-09-09T14:56:10;23.20;99.90
33149;DHT22;19506;51.040;3.856;2022-09-09T14:58:37;23.30;99.90
33149;DHT22;19506;51.040;3.856;2022-09-09T15:01:04;23.40;99.90
33149;DHT22;19506;51.040;3.856;2022-09-09T15:03:30;23.50;99.90
33149;DHT22;19506;51.040;3.856;2022-09-09T15:05:56;23.50;99.90
33149;DHT22;19506;51.040;3.856;2022-09-09T15:08:24;23.60;99.90
33149;DHT22;19506;51.040;3.856;2022-09-09T15:10:50;23.50;99.90
33149;DHT22;19506;51.040;3.856;2022-09-09T15:13:15;23.40;99.90
33149;DHT22;19506;51.040;3.856;2022-09-09T15:15:42;23.50;99.90
33149;DHT22;19506;51.040;3.856;2022-09-09T15:18:09;23.50;99.90
33149;DHT22;19506;51.040;3.856;2022-09-09T15:20:35;23.40;99.90
33149;DHT22;19506;51.040;3.856;2022-09-09T15:23:02;23.50;99.90
33149;DHT22;19506;51.040;3.856;2022-09-09T15:25:28;23.50;99.90
33149;DHT22;19506;51.040;3.856;2022-09-09T15:27:54;23.50;99.90
33149;DHT22;19506;51.040;3.856;2022-09-09T15:30:21;23.50;99.90
33149;DHT22;19506;51.040;3.856;2022-09-09T15:32:47;23.50;99.90
33149;DHT22;19506;51.040;3.856;2022-09-09T15:35:12;23.50;99.90
33149;DHT22;19506;51.040;3.856;2022-09-09T15:37:38;23.40;99.90
33149;DHT22;19506;51.040;3.856;2022-09-09T15:40:04;23.30;99.90
33149;DHT22;19506;51.040;3.856;2022-09-09T15:42:30;23.20;99.90
33149;DHT22;19506;51.040;3.856;2022-09-09T15:44:55;23.10;99.90
33149;DHT22;19506;51.040;3.856;2022-09-09T15:47:22;23.00;99.90
33149;DHT22;19506;51.040;3.856;2022-09-09T15:49:48;22.90;99.90
33149;DHT22;19506;51.040;3.856;2022-09-09T15:52:13;22.80;99.90
33149;DHT22;19506;51.040;3.856;2022-09-09T15:54:39;22.80;99.90
33149;DHT22;19506;51.040;3.856;2022-09-09T15:57:07;22.80;99.90
33149;DHT22;19506;51.040;3.856;2022-09-09T15:59:34;22.70;99.90
33149;DHT22;19506;51.040;3.856;2022-09-09T16:02:00;22.70;99.90
33149;DHT22;19506;51.040;3.856;2022-09-09T16:04:27;22.70;99.90
33149;DHT22;19506;51.040;3.856;2022-09-09T16:07:02;22.70;99.90
33149;DHT22;19506;51.040;3.856;2022-09-09T16:09:29;22.60;99.90
33149;DHT22;19506;51.040;3.856;2022-09-09T16:11:56;22.50;99.90
33149;DHT22;19506;51.040;3.856;2022-09-09T16:14:24;22.50;99.90
33149;DHT22;19506;51.040;3.856;2022-09-09T16:16:50;22.40;99.90
33149;DHT22;19506;51.040;3.856;2022-09-09T16:19:16;22.50;99.90
33149;DHT22;19506;51.040;3.856;2022-09-09T16:21:44;22.50;99.90
33149;DHT22;19506;51.040;3.856;2022-09-09T16:24:13;22.50;99.90
33149;DHT22;19506;51.040;3.856;2022-09-09T16:26:41;22.60;99.90
33149;DHT22;19506;51.040;3.856;2022-09-09T16:29:11;22.60;99.90
33149;DHT22;19506;51.040;3.856;2022-09-09T16:31:37;22.60;99.90
33149;DHT22;19506;51.040;3.856;2022-09-09T16:34:04;22.40;99.90
33149;DHT22;19506;51.040;3.856;2022-09-09T16:36:31;22.20;99.90
33149;DHT22;19506;51.040;3.856;2022-09-09T16:39:04;22.30;99.90
33149;DHT22;19506;51.040;3.856;2022-09-09T16:41:31;22.30;99.90
33149;DHT22;19506;51.040;3.856;2022-09-09T16:44:00;22.00;99.90
33149;DHT22;19506;51.040;3.856;2022-09-09T16:46:28;21.70;99.90
33149;DHT22;19506;51.040;3.856;2022-09-09T16:48:56;21.80;99.90
33149;DHT22;19506;51.040;3.856;2022-09-09T16:51:35;21.90;99.90
33149;DHT22;19506;51.040;3.856;2022-09-09T16:54:03;22.00;99.90
33149;DHT22;19506;51.040;3.856;2022-09-09T16:56:31;22.10;99.90
33149;DHT22;19506;51.040;3.856;2022-09-09T16:59:00;22.00;99.90
33149;DHT22;19506;51.040;3.856;2022-09-09T17:01:29;22.00;99.90
33149;DHT22;19506;51.040;3.856;2022-09-09T17:04:00;22.00;99.90
33149;DHT22;19506;51.040;3.856;2022-09-09T17:06:28;22.00;99.90
33149;DHT22;19506;51.040;3.856;2022-09-09T17:08:58;21.80;99.90
33149;DHT22;19506;51.040;3.856;2022-09-09T17:11:25;21.60;99.90
33149;DHT22;19506;51.040;3.856;2022-09-09T17:13:53;21.70;99.90
33149;DHT22;19506;51.040;3.856;2022-09-09T17:16:21;21.70;99.90
33149;DHT22;19506;51.040;3.856;2022-09-09T17:18:48;21.70;99.90
33149;DHT22;19506;51.040;3.856;2022-09-09T17:21:16;21.70;99.90
33149;DHT22;19506;51.040;3.856;2022-09-09T17:23:44;21.70;99.90
33149;DHT22;19506;51.040;3.856;2022-09-09T17:26:13;21.60;99.90
33149;DHT22;19506;51.040;3.856;2022-09-09T17:28:40;21.60;99.90
33149;DHT22;19506;51.040;3.856;2022-09-09T17:31:07;21.70;99.90
33149;DHT22;19506;51.040;3.856;2022-09-09T17:33:34;21.70;99.90
33149;DHT22;19506;51.040;3.856;2022-09-09T17:36:02;21.80;99.90
33149;DHT22;19506;51.040;3.856;2022-09-09T17:38:31;21.50;99.90
33149;DHT22;19506;51.040;3.856;2022-09-09T17:43:37;21.30;99.90
33149;DHT22;19506;51.040;3.856;2022-09-09T17:48:32;21.30;99.90
33149;DHT22;19506;51.040;3.856;2022-09-09T17:50:59;21.20;99.90
33149;DHT22;19506;51.040;3.856;2022-09-09T17:53:24;21.10;99.90
33149;DHT22;19506;51.040;3.856;2022-09-09T17:55:51;21.10;99.90
33149;DHT22;19506;51.040;3.856;2022-09-09T17:58:16;21.10;99.90
33149;DHT22;19506;51.040;3.856;2022-09-09T18:00:42;21.20;99.90
33149;DHT22;19506;51.040;3.856;2022-09-09T18:03:07;21.10;99.90
33149;DHT22;19506;51.040;3.856;2022-09-09T18:05:34;21.10;99.90
33149;DHT22;19506;51.040;3.856;2022-09-09T18:07:59;21.10;99.90
33149;DHT22;19506;51.040;3.856;2022-09-09T18:10:25;20.80;99.90
33149;DHT22;19506;51.040;3.856;2022-09-09T18:12:51;21.00;99.90
33149;DHT22;19506;51.040;3.856;2022-09-09T18:15:17;21.10;99.90
33149;DHT22;19506;51.040;3.856;2022-09-09T18:17:43;21.10;99.90
33149;DHT22;19506;51.040;3.856;2022-09-09T18:20:09;21.20;99.90
33149;DHT22;19506;51.040;3.856;2022-09-09T18:22:35;21.10;99.90
33149;DHT22;19506;51.040;3.856;2022-09-09T18:25:01;21.10;99.90
33149;DHT22;19506;51.040;3.856;2022-09-09T18:27:27;21.10;99.90
33149;DHT22;19506;51.040;3.856;2022-09-09T18:29:53;21.10;99.90
33149;DHT22;19506;51.040;3.856;2022-09-09T18:32:19;21.10;99.90
33149;DHT22;19506;51.040;3.856;2022-09-09T18:34:44;21.00;99.90
33149;DHT22;19506;51.040;3.856;2022-09-09T18:37:10;21.10;99.90
33149;DHT22;19506;51.040;3.856;2022-09-09T18:39:36;21.10;99.90
33149;DHT22;19506;51.040;3.856;2022-09-09T18:42:02;21.00;99.90
33149;DHT22;19506;51.040;3.856;2022-09-09T18:44:33;21.10;99.90
33149;DHT22;19506;51.040;3.856;2022-09-09T18:46:59;21.00;99.90
33149;DHT22;19506;51.040;3.856;2022-09-09T18:49:25;21.00;99.90
33149;DHT22;19506;51.040;3.856;2022-09-09T18:51:51;20.90;99.90
33149;DHT22;19506;51.040;3.856;2022-09-09T18:54:23;21.00;99.90
33149;DHT22;19506;51.040;3.856;2022-09-09T18:56:49;21.00;99.90
33149;DHT22;19506;51.040;3.856;2022-09-09T18:59:18;21.00;99.90
33149;DHT22;19506;51.040;3.856;2022-09-09T19:01:45;21.00;99.90
33149;DHT22;19506;51.040;3.856;2022-09-09T19:04:11;21.10;99.90
33149;DHT22;19506;51.040;3.856;2022-09-09T19:06:39;21.10;99.90
33149;DHT22;19506;51.040;3.856;2022-09-09T19:09:09;21.10;99.90
33149;DHT22;19506;51.040;3.856;2022-09-09T19:11:36;21.10;99.90
33149;DHT22;19506;51.040;3.856;2022-09-09T19:14:04;21.10;99.90
33149;DHT22;19506;51.040;3.856;2022-09-09T19:16:32;21.10;99.90
33149;DHT22;19506;51.040;3.856;2022-09-09T19:18:59;21.10;99.90
33149;DHT22;19506;51.040;3.856;2022-09-09T19:21:28;21.10;99.90
33149;DHT22;19506;51.040;3.856;2022-09-09T19:26:20;21.10;99.90
33149;DHT22;19506;51.040;3.856;2022-09-09T19:28:46;21.10;99.90
33149;DHT22;19506;51.040;3.856;2022-09-09T19:31:15;21.10;99.90
33149;DHT22;19506;51.040;3.856;2022-09-09T19:33:43;21.10;99.90
33149;DHT22;19506;51.040;3.856;2022-09-09T19:36:11;21.10;99.90
33149;DHT22;19506;51.040;3.856;2022-09-09T19:38:37;21.20;99.90
33149;DHT22;19506;51.040;3.856;2022-09-09T19:41:09;21.10;99.90
33149;DHT22;19506;51.040;3.856;2022-09-09T19:43:35;21.20;99.90
33149;DHT22;19506;51.040;3.856;2022-09-09T19:46:05;21.10;99.90
33149;DHT22;19506;51.040;3.856;2022-09-09T19:48:35;21.10;99.90
33149;DHT22;19506;51.040;3.856;2022-09-09T19:51:11;21.10;99.90
33149;DHT22;19506;51.040;3.856;2022-09-09T19:53:49;21.10;99.90
33149;DHT22;19506;51.040;3.856;2022-09-09T19:56:16;21.10;99.90
33149;DHT22;19506;51.040;3.856;2022-09-09T19:58:44;21.10;99.90
33149;DHT22;19506;51.040;3.856;2022-09-09T20:01:16;21.00;99.90
33149;DHT22;19506;51.040;3.856;2022-09-09T20:03:44;21.10;99.90
33149;DHT22;19506;51.040;3.856;2022-09-09T20:06:13;21.00;99.90
33149;DHT22;19506;51.040;3.856;2022-09-09T20:08:39;21.10;99.90
33149;DHT22;19506;51.040;3.856;2022-09-09T20:11:06;21.10;99.90
33149;DHT22;19506;51.040;3.856;2022-09-09T20:13:35;21.10;99.90
33149;DHT22;19506;51.040;3.856;2022-09-09T20:16:11;21.10;99.90
33149;DHT22;19506;51.040;3.856;2022-09-09T20:18:40;21.10;99.90
33149;DHT22;19506;51.040;3.856;2022-09-09T20:21:19;21.10;99.90
33149;DHT22;19506;51.040;3.856;2022-09-09T20:23:49;21.10;99.90
33149;DHT22;19506;51.040;3.856;2022-09-09T20:26:20;21.20;99.90
33149;DHT22;19506;51.040;3.856;2022-09-09T20:28:47;21.20;99.90
33149;DHT22;19506;51.040;3.856;2022-09-09T20:31:25;21.10;99.90
33149;DHT22;19506;51.040;3.856;2022-09-09T20:33:51;21.10;99.90
33149;DHT22;19506;51.040;3.856;2022-09-09T20:36:20;21.10;99.90
33149;DHT22;19506;51.040;3.856;2022-09-09T20:41:14;21.10;99.90
33149;DHT22;19506;51.040;3.856;2022-09-09T20:43:59;21.10;99.90
33149;DHT22;19506;51.040;3.856;2022-09-09T20:46:28;21.10;99.90
33149;DHT22;19506;51.040;3.856;2022-09-09T20:48:55;21.10;99.90
33149;DHT22;19506;51.040;3.856;2022-09-09T20:51:22;21.10;99.90
33149;DHT22;19506;51.040;3.856;2022-09-09T20:54:06;21.20;99.90
33149;DHT22;19506;51.040;3.856;2022-09-09T20:56:35;21.20;99.90
33149;DHT22;19506;51.040;3.856;2022-09-09T20:59:12;21.20;99.90
33149;DHT22;19506;51.040;3.856;2022-09-09T21:01:38;21.10;99.90
33149;DHT22;19506;51.040;3.856;2022-09-09T21:04:05;21.10;99.90
33149;DHT22;19506;51.040;3.856;2022-09-09T21:06:30;21.10;99.90
33149;DHT22;19506;51.040;3.856;2022-09-09T21:08:56;21.10;99.90
33149;DHT22;19506;51.040;3.856;2022-09-09T21:11:22;21.10;99.90
33149;DHT22;19506;51.040;3.856;2022-09-09T21:13:48;21.00;99.90
33149;DHT22;19506;51.040;3.856;2022-09-09T21:16:16;21.00;99.90
33149;DHT22;19506;51.040;3.856;2022-09-09T21:18:46;20.90;99.90
33149;DHT22;19506;51.040;3.856;2022-09-09T21:21:12;20.90;99.90
33149;DHT22;19506;51.040;3.856;2022-09-09T21:23:39;20.80;99.90
33149;DHT22;19506;51.040;3.856;2022-09-09T21:26:05;20.80;99.90
33149;DHT22;19506;51.040;3.856;2022-09-09T21:28:32;20.80;99.90
33149;DHT22;19506;51.040;3.856;2022-09-09T21:30:58;20.80;99.90
33149;DHT22;19506;51.040;3.856;2022-09-09T21:33:26;20.80;99.90
33149;DHT22;19506;51.040;3.856;2022-09-09T21:36:01;20.80;99.90
33149;DHT22;19506;51.040;3.856;2022-09-09T21:38:27;20.80;99.90
33149;DHT22;19506;51.040;3.856;2022-09-09T21:40:53;20.70;99.90
33149;DHT22;19506;51.040;3.856;2022-09-09T21:43:19;20.70;99.90
33149;DHT22;19506;51.040;3.856;2022-09-09T21:45:45;20.70;99.90
33149;DHT22;19506;51.040;3.856;2022-09-09T21:48:15;20.70;99.90
33149;DHT22;19506;51.040;3.856;2022-09-09T21:50:46;20.60;99.90
33149;DHT22;19506;51.040;3.856;2022-09-09T21:53:14;20.60;99.90
33149;DHT22;19506;51.040;3.856;2022-09-09T21:55:41;20.60;99.90
33149;DHT22;19506;51.040;3.856;2022-09-09T21:58:08;20.60;99.90
33149;DHT22;19506;51.040;3.856;2022-09-09T22:00:35;20.50;99.90
33149;DHT22;19506;51.040;3.856;2022-09-09T22:03:02;20.50;99.90
33149;DHT22;19506;51.040;3.856;2022-09-09T22:05:29;20.50;99.90
33149;DHT22;19506;51.040;3.856;2022-09-09T22:07:55;20.50;99.90
33149;DHT22;19506;51.040;3.856;2022-09-09T22:10:21;20.40;99.90
33149;DHT22;19506;51.040;3.856;2022-09-09T22:12:48;20.40;99.90
33149;DHT22;19506;51.040;3.856;2022-09-09T22:15:14;20.40;99.90
33149;DHT22;19506;51.040;3.856;2022-09-09T22:17:40;20.40;99.90
33149;DHT22;19506;51.040;3.856;2022-09-09T22:20:07;20.40;99.90
33149;DHT22;19506;51.040;3.856;2022-09-09T22:22:32;20.40;99.90
33149;DHT22;19506;51.040;3.856;2022-09-09T22:24:58;20.40;99.90
33149;DHT22;19506;51.040;3.856;2022-09-09T22:27:24;20.40;99.90
33149;DHT22;19506;51.040;3.856;2022-09-09T22:29:49;20.50;99.90
33149;DHT22;19506;51.040;3.856;2022-09-09T22:32:15;20.40;99.90
33149;DHT22;19506;51.040;3.856;2022-09-09T22:34:41;20.50;99.90
33149;DHT22;19506;51.040;3.856;2022-09-09T22:37:07;20.40;99.90
33149;DHT22;19506;51.040;3.856;2022-09-09T22:39:33;20.40;99.90
33149;DHT22;19506;51.040;3.856;2022-09-09T22:41:59;20.40;99.90
33149;DHT22;19506;51.040;3.856;2022-09-09T22:44:25;20.40;99.90
33149;DHT22;19506;51.040;3.856;2022-09-09T22:46:53;20.40;99.90
33149;DHT22;19506;51.040;3.856;2022-09-09T22:49:18;20.40;99.90
33149;DHT22;19506;51.040;3.856;2022-09-09T22:51:44;20.40;99.90
33149;DHT22;19506;51.040;3.856;2022-09-09T22:54:10;20.40;99.90
33149;DHT22;19506;51.040;3.856;2022-09-09T22:56:36;20.40;99.90
33149;DHT22;19506;51.040;3.856;2022-09-09T22:59:02;20.40;99.90
33149;DHT22;19506;51.040;3.856;2022-09-09T23:01:28;20.40;99.90
33149;DHT22;19506;51.040;3.856;2022-09-09T23:03:54;20.40;99.90
33149;DHT22;19506;51.040;3.856;2022-09-09T23:06:25;20.40;99.90
33149;DHT22;19506;51.040;3.856;2022-09-09T23:09:01;20.40;99.90
33149;DHT22;19506;51.040;3.856;2022-09-09T23:11:30;20.40;99.90
33149;DHT22;19506;51.040;3.856;2022-09-09T23:13:58;20.30;99.90
33149;DHT22;19506;51.040;3.856;2022-09-09T23:16:33;20.40;99.90
33149;DHT22;19506;51.040;3.856;2022-09-09T23:19:00;20.40;99.90
33149;DHT22;19506;51.040;3.856;2022-09-09T23:21:27;20.40;99.90
33149;DHT22;19506;51.040;3.856;2022-09-09T23:23:56;20.40;99.90
33149;DHT22;19506;51.040;3.856;2022-09-09T23:26:23;20.40;99.90
33149;DHT22;19506;51.040;3.856;2022-09-09T23:28:50;20.30;99.90
33149;DHT22;19506;51.040;3.856;2022-09-09T23:31:19;20.30;99.90
33149;DHT22;19506;51.040;3.856;2022-09-09T23:33:46;20.30;99.90
33149;DHT22;19506;51.040;3.856;2022-09-09T23:36:18;20.30;99.90
33149;DHT22;19506;51.040;3.856;2022-09-09T23:38:45;20.30;99.90
33149;DHT22;19506;51.040;3.856;2022-09-09T23:41:13;20.30;99.90
33149;DHT22;19506;51.040;3.856;2022-09-09T23:43:39;20.30;99.90
33149;DHT22;19506;51.040;3.856;2022-09-09T23:46:10;20.30;99.90
33149;DHT22;19506;51.040;3.856;2022-09-09T23:48:36;20.30;99.90
33149;DHT22;19506;51.040;3.856;2022-09-09T23:51:03;20.30;99.90
33149;DHT22;19506;51.040;3.856;2022-09-09T23:53:29;20.30;99.90
33149;DHT22;19506;51.040;3.856;2022-09-09T23:55:55;20.30;99.90
33149;DHT22;19506;51.040;3.856;2022-09-09T23:58:23;20.30;99.90
